sensor_id;sensor_type;location;lat;lon;timestamp;pressure;altitude;pressure_sealevel;temperature
73761;BMP280;69240;43.530;-5.646;2023-04-25T04:58:46;101310.81;;;16.54
73761;BMP280;69240;43.530;-5.646;2023-04-25T05:01:14;101308.81;;;16.49
73761;BMP280;69240;43.530;-5.646;2023-04-25T05:03:41;101315.00;;;16.55
73761;BMP280;69240;43.530;-5.646;2023-04-25T05:06:06;101316.00;;;16.57
73761;BMP280;69240;43.530;-5.646;2023-04-25T05:08:34;101315.25;;;16.57
73761;BMP280;69240;43.530;-5.646;2023-04-25T05:10:59;101327.59;;;16.63
73761;BMP280;69240;43.530;-5.646;2023-04-25T05:13:25;101322.47;;;16.65
73761;BMP280;69240;43.530;-5.646;2023-04-25T05:15:50;101318.31;;;16.70
73761;BMP280;69240;43.530;-5.646;2023-04-25T05:18:16;101323.94;;;16.72
73761;BMP280;69240;43.530;-5.646;2023-04-25T05:20:41;101321.22;;;16.72
73761;BMP280;69240;43.530;-5.646;2023-04-25T05:23:07;101324.22;;;16.74
73761;BMP280;69240;43.530;-5.646;2023-04-25T05:25:33;101332.03;;;16.72
73761;BMP280;69240;43.530;-5.646;2023-04-25T05:27:58;101334.28;;;16.73
73761;BMP280;69240;43.530;-5.646;2023-04-25T05:30:24;101323.00;;;16.75
73761;BMP280;69240;43.530;-5.646;2023-04-25T05:32:50;101325.72;;;16.75
73761;BMP280;69240;43.530;-5.646;2023-04-25T05:35:15;101331.13;;;16.75
73761;BMP280;69240;43.530;-5.646;2023-04-25T05:37:41;101331.59;;;16.73
73761;BMP280;69240;43.530;-5.646;2023-04-25T05:40:08;101333.09;;;16.80
73761;BMP280;69240;43.530;-5.646;2023-04-25T05:42:34;101342.22;;;16.88
73761;BMP280;69240;43.530;-5.646;2023-04-25T05:44:59;101341.75;;;16.89
73761;BMP280;69240;43.530;-5.646;2023-04-25T05:47:26;101343.53;;;16.98
73761;BMP280;69240;43.530;-5.646;2023-04-25T05:49:52;101342.34;;;17.04
73761;BMP280;69240;43.530;-5.646;2023-04-25T05:52:18;101341.16;;;17.11
73761;BMP280;69240;43.530;-5.646;2023-04-25T05:54:43;101337.72;;;17.16
73761;BMP280;69240;43.530;-5.646;2023-04-25T05:57:19;101337.50;;;17.14
73761;BMP280;69240;43.530;-5.646;2023-04-25T05:59:45;101341.50;;;17.35
73761;BMP280;69240;43.530;-5.646;2023-04-25T06:02:10;101344.34;;;17.78
73761;BMP280;69240;43.530;-5.646;2023-04-25T06:04:36;101318.94;;;17.59
73761;BMP280;69240;43.530;-5.646;2023-04-25T06:07:01;101319.63;;;17.33
73761;BMP280;69240;43.530;-5.646;2023-04-25T06:09:27;101319.63;;;17.33
73761;BMP280;69240;43.530;-5.646;2023-04-25T06:11:52;101315.94;;;17.36
73761;BMP280;69240;43.530;-5.646;2023-04-25T06:14:18;101314.97;;;17.44
73761;BMP280;69240;43.530;-5.646;2023-04-25T06:16:43;101317.47;;;17.48
73761;BMP280;69240;43.530;-5.646;2023-04-25T06:19:09;101328.00;;;17.45
73761;BMP280;69240;43.530;-5.646;2023-04-25T06:21:34;101320.63;;;17.41
73761;BMP280;69240;43.530;-5.646;2023-04-25T06:24:00;101328.03;;;17.56
73761;BMP280;69240;43.530;-5.646;2023-04-25T06:26:25;101340.91;;;17.72
73761;BMP280;69240;43.530;-5.646;2023-04-25T06:28:51;101344.59;;;17.80
73761;BMP280;69240;43.530;-5.646;2023-04-25T06:31:19;101344.88;;;17.93
73761;BMP280;69240;43.530;-5.646;2023-04-25T06:33:44;101351.03;;;17.99
73761;BMP280;69240;43.530;-5.646;2023-04-25T06:36:10;101349.78;;;18.11
73761;BMP280;69240;43.530;-5.646;2023-04-25T06:38:35;101349.34;;;18.18
73761;BMP280;69240;43.530;-5.646;2023-04-25T06:41:01;101352.53;;;18.22
73761;BMP280;69240;43.530;-5.646;2023-04-25T06:43:27;101353.78;;;18.32
73761;BMP280;69240;43.530;-5.646;2023-04-25T06:55:52;101362.09;;;18.89
73761;BMP280;69240;43.530;-5.646;2023-04-25T06:58:18;101361.78;;;19.04
73761;BMP280;69240;43.530;-5.646;2023-04-25T07:00:44;101370.78;;;19.39
73761;BMP280;69240;43.530;-5.646;2023-04-25T07:03:09;101366.69;;;19.62
73761;BMP280;69240;43.530;-5.646;2023-04-25T07:05:35;101374.84;;;19.62
73761;BMP280;69240;43.530;-5.646;2023-04-25T07:08:00;101378.75;;;19.67
73761;BMP280;69240;43.530;-5.646;2023-04-25T07:10:26;101385.06;;;19.45
73761;BMP280;69240;43.530;-5.646;2023-04-25T07:12:52;101381.28;;;19.65
73761;BMP280;69240;43.530;-5.646;2023-04-25T07:15:17;101379.78;;;19.64
73761;BMP280;69240;43.530;-5.646;2023-04-25T07:17:43;101378.28;;;19.68
73761;BMP280;69240;43.530;-5.646;2023-04-25T07:20:09;101388.84;;;19.77
73761;BMP280;69240;43.530;-5.646;2023-04-25T07:22:35;101385.28;;;19.93
73761;BMP280;69240;43.530;-5.646;2023-04-25T07:25:00;101392.66;;;19.98
73761;BMP280;69240;43.530;-5.646;2023-04-25T07:27:26;101389.00;;;19.96
73761;BMP280;69240;43.530;-5.646;2023-04-25T07:29:52;101396.56;;;19.68
73761;BMP280;69240;43.530;-5.646;2023-04-25T07:32:18;101401.03;;;19.60
73761;BMP280;69240;43.530;-5.646;2023-04-25T07:34:43;101413.63;;;19.57
73761;BMP280;69240;43.530;-5.646;2023-04-25T07:37:09;101422.91;;;19.78
73761;BMP280;69240;43.530;-5.646;2023-04-25T07:39:34;101437.66;;;19.88
73761;BMP280;69240;43.530;-5.646;2023-04-25T07:42:00;101428.59;;;20.15
73761;BMP280;69240;43.530;-5.646;2023-04-25T07:44:27;101431.97;;;20.32
73761;BMP280;69240;43.530;-5.646;2023-04-25T07:46:52;101427.13;;;20.49
73761;BMP280;69240;43.530;-5.646;2023-04-25T07:49:18;101423.09;;;20.56
73761;BMP280;69240;43.530;-5.646;2023-04-25T07:51:43;101417.84;;;20.63
73761;BMP280;69240;43.530;-5.646;2023-04-25T07:54:13;101426.84;;;20.77
73761;BMP280;69240;43.530;-5.646;2023-04-25T07:56:39;101430.06;;;20.75
73761;BMP280;69240;43.530;-5.646;2023-04-25T07:59:04;101432.13;;;20.69
73761;BMP280;69240;43.530;-5.646;2023-04-25T08:01:30;101446.47;;;20.94
73761;BMP280;69240;43.530;-5.646;2023-04-25T08:03:56;101444.88;;;21.04
73761;BMP280;69240;43.530;-5.646;2023-04-25T08:06:21;101458.81;;;20.95
73761;BMP280;69240;43.530;-5.646;2023-04-25T08:08:47;101454.34;;;21.21
73761;BMP280;69240;43.530;-5.646;2023-04-25T08:11:12;101459.53;;;21.80
73761;BMP280;69240;43.530;-5.646;2023-04-25T08:13:38;101460.69;;;22.03
73761;BMP280;69240;43.530;-5.646;2023-04-25T08:16:03;101462.84;;;22.23
73761;BMP280;69240;43.530;-5.646;2023-04-25T08:18:29;101460.75;;;22.29
73761;BMP280;69240;43.530;-5.646;2023-04-25T08:20:54;101461.22;;;22.46
73761;BMP280;69240;43.530;-5.646;2023-04-25T08:23:20;101475.28;;;22.50
73761;BMP280;69240;43.530;-5.646;2023-04-25T08:25:45;101458.09;;;22.68
73761;BMP280;69240;43.530;-5.646;2023-04-25T08:28:11;101467.16;;;22.63
73761;BMP280;69240;43.530;-5.646;2023-04-25T08:30:37;101459.72;;;22.32
73761;BMP280;69240;43.530;-5.646;2023-04-25T08:33:02;101463.38;;;23.05
73761;BMP280;69240;43.530;-5.646;2023-04-25T08:35:28;101467.50;;;23.45
73761;BMP280;69240;43.530;-5.646;2023-04-25T08:37:53;101463.16;;;23.16
73761;BMP280;69240;43.530;-5.646;2023-04-25T08:40:22;101462.72;;;23.25
73761;BMP280;69240;43.530;-5.646;2023-04-25T08:42:53;101454.34;;;23.10
73761;BMP280;69240;43.530;-5.646;2023-04-25T08:45:20;101450.34;;;22.72
73761;BMP280;69240;43.530;-5.646;2023-04-25T08:47:45;101445.13;;;23.00
73761;BMP280;69240;43.530;-5.646;2023-04-25T08:50:14;101452.75;;;23.01
73761;BMP280;69240;43.530;-5.646;2023-04-25T08:52:44;101446.56;;;23.01
73761;BMP280;69240;43.530;-5.646;2023-04-25T08:55:12;101450.50;;;23.39
73761;BMP280;69240;43.530;-5.646;2023-04-25T08:57:38;101461.56;;;23.67
73761;BMP280;69240;43.530;-5.646;2023-04-25T09:00:05;101448.59;;;23.34
73761;BMP280;69240;43.530;-5.646;2023-04-25T09:02:31;101445.53;;;22.91
73761;BMP280;69240;43.530;-5.646;2023-04-25T09:04:57;101450.78;;;22.89
73761;BMP280;69240;43.530;-5.646;2023-04-25T09:07:22;101458.03;;;22.86
73761;BMP280;69240;43.530;-5.646;2023-04-25T09:09:48;101470.41;;;22.61
73761;BMP280;69240;43.530;-5.646;2023-04-25T09:12:13;101463.13;;;22.64
73761;BMP280;69240;43.530;-5.646;2023-04-25T09:14:39;101459.19;;;22.91
73761;BMP280;69240;43.530;-5.646;2023-04-25T09:17:05;101458.31;;;23.09
73761;BMP280;69240;43.530;-5.646;2023-04-25T09:19:34;101458.53;;;22.72
73761;BMP280;69240;43.530;-5.646;2023-04-25T09:22:06;101457.06;;;22.71
73761;BMP280;69240;43.530;-5.646;2023-04-25T09:27:06;101452.91;;;22.96
73761;BMP280;69240;43.530;-5.646;2023-04-25T09:29:34;101442.47;;;22.68
73761;BMP280;69240;43.530;-5.646;2023-04-25T09:32:22;101444.66;;;22.44
73761;BMP280;69240;43.530;-5.646;2023-04-25T09:34:50;101448.75;;;22.50
73761;BMP280;69240;43.530;-5.646;2023-04-25T09:37:24;101458.53;;;22.98
73761;BMP280;69240;43.530;-5.646;2023-04-25T09:39:54;101456.53;;;23.11
73761;BMP280;69240;43.530;-5.646;2023-04-25T09:42:25;101449.16;;;23.32
73761;BMP280;69240;43.530;-5.646;2023-04-25T09:44:53;101452.69;;;23.53
73761;BMP280;69240;43.530;-5.646;2023-04-25T09:47:19;101445.16;;;23.67
73761;BMP280;69240;43.530;-5.646;2023-04-25T09:49:47;101435.00;;;23.21
73761;BMP280;69240;43.530;-5.646;2023-04-25T09:52:31;101448.59;;;23.47
73761;BMP280;69240;43.530;-5.646;2023-04-25T09:54:56;101446.19;;;23.43
73761;BMP280;69240;43.530;-5.646;2023-04-25T09:57:25;101447.38;;;23.09
73761;BMP280;69240;43.530;-5.646;2023-04-25T09:59:52;101440.69;;;22.71
73761;BMP280;69240;43.530;-5.646;2023-04-25T10:02:23;101437.91;;;22.32
73761;BMP280;69240;43.530;-5.646;2023-04-25T10:04:54;101431.38;;;21.90
73761;BMP280;69240;43.530;-5.646;2023-04-25T10:07:22;101430.69;;;21.53
73761;BMP280;69240;43.530;-5.646;2023-04-25T10:09:55;101443.34;;;21.08
73761;BMP280;69240;43.530;-5.646;2023-04-25T10:12:24;101442.09;;;20.85
73761;BMP280;69240;43.530;-5.646;2023-04-25T10:14:50;101443.56;;;20.86
73761;BMP280;69240;43.530;-5.646;2023-04-25T10:17:17;101442.94;;;20.99
73761;BMP280;69240;43.530;-5.646;2023-04-25T10:19:43;101443.81;;;20.88
73761;BMP280;69240;43.530;-5.646;2023-04-25T10:22:14;101442.88;;;20.80
73761;BMP280;69240;43.530;-5.646;2023-04-25T10:24:42;101444.88;;;21.04
73761;BMP280;69240;43.530;-5.646;2023-04-25T10:27:08;101437.56;;;20.69
73761;BMP280;69240;43.530;-5.646;2023-04-25T10:29:35;101433.94;;;20.85
73761;BMP280;69240;43.530;-5.646;2023-04-25T10:32:00;101430.22;;;20.83
73761;BMP280;69240;43.530;-5.646;2023-04-25T10:34:40;101437.47;;;21.23
73761;BMP280;69240;43.530;-5.646;2023-04-25T10:37:08;101439.34;;;21.70
73761;BMP280;69240;43.530;-5.646;2023-04-25T10:39:34;101456.25;;;22.18
73761;BMP280;69240;43.530;-5.646;2023-04-25T10:42:02;101443.72;;;22.67
73761;BMP280;69240;43.530;-5.646;2023-04-25T10:44:29;101436.06;;;23.05
73761;BMP280;69240;43.530;-5.646;2023-04-25T10:46:56;101428.50;;;23.11
73761;BMP280;69240;43.530;-5.646;2023-04-25T10:52:15;101422.94;;;24.03
73761;BMP280;69240;43.530;-5.646;2023-04-25T10:54:49;101421.53;;;24.10
73761;BMP280;69240;43.530;-5.646;2023-04-25T10:57:41;101419.16;;;24.34
73761;BMP280;69240;43.530;-5.646;2023-04-25T11:00:14;101418.69;;;24.23
73761;BMP280;69240;43.530;-5.646;2023-04-25T11:02:57;101423.09;;;24.26
73761;BMP280;69240;43.530;-5.646;2023-04-25T11:05:30;101424.97;;;24.94
73761;BMP280;69240;43.530;-5.646;2023-04-25T11:07:57;101427.44;;;24.49
73761;BMP280;69240;43.530;-5.646;2023-04-25T11:10:28;101427.38;;;24.14
73761;BMP280;69240;43.530;-5.646;2023-04-25T11:12:54;101423.66;;;23.63
73761;BMP280;69240;43.530;-5.646;2023-04-25T11:15:20;101428.13;;;23.73
73761;BMP280;69240;43.530;-5.646;2023-04-25T11:17:45;101437.59;;;24.13
73761;BMP280;69240;43.530;-5.646;2023-04-25T11:20:12;101421.63;;;24.25
73761;BMP280;69240;43.530;-5.646;2023-04-25T11:22:39;101442.19;;;24.46
73761;BMP280;69240;43.530;-5.646;2023-04-25T11:25:09;101419.59;;;23.97
73761;BMP280;69240;43.530;-5.646;2023-04-25T11:27:58;101417.75;;;23.92
73761;BMP280;69240;43.530;-5.646;2023-04-25T11:30:25;101428.44;;;23.70
73761;BMP280;69240;43.530;-5.646;2023-04-25T11:32:51;101430.66;;;23.72
73761;BMP280;69240;43.530;-5.646;2023-04-25T11:35:18;101432.69;;;23.58
73761;BMP280;69240;43.530;-5.646;2023-04-25T11:37:44;101434.59;;;23.63
73761;BMP280;69240;43.530;-5.646;2023-04-25T11:40:10;101427.03;;;23.56
73761;BMP280;69240;43.530;-5.646;2023-04-25T11:42:44;101427.19;;;23.51
73761;BMP280;69240;43.530;-5.646;2023-04-25T11:45:10;101427.41;;;23.60
73761;BMP280;69240;43.530;-5.646;2023-04-25T11:47:36;101429.00;;;23.22
73761;BMP280;69240;43.530;-5.646;2023-04-25T11:50:03;101432.28;;;23.21
73761;BMP280;69240;43.530;-5.646;2023-04-25T11:52:40;101416.38;;;23.66
73761;BMP280;69240;43.530;-5.646;2023-04-25T11:57:37;101413.56;;;23.12
73761;BMP280;69240;43.530;-5.646;2023-04-25T12:00:12;101417.00;;;22.66
73761;BMP280;69240;43.530;-5.646;2023-04-25T12:02:42;101423.06;;;22.72
73761;BMP280;69240;43.530;-5.646;2023-04-25T12:05:09;101425.34;;;22.42
73761;BMP280;69240;43.530;-5.646;2023-04-25T12:07:35;101423.44;;;22.37
73761;BMP280;69240;43.530;-5.646;2023-04-25T12:10:20;101432.28;;;22.56
73761;BMP280;69240;43.530;-5.646;2023-04-25T12:12:47;101431.66;;;22.76
73761;BMP280;69240;43.530;-5.646;2023-04-25T12:17:42;101422.13;;;23.42
73761;BMP280;69240;43.530;-5.646;2023-04-25T12:20:12;101416.97;;;23.18
73761;BMP280;69240;43.530;-5.646;2023-04-25T12:22:41;101416.44;;;22.93
73761;BMP280;69240;43.530;-5.646;2023-04-25T12:25:13;101420.25;;;23.70
73761;BMP280;69240;43.530;-5.646;2023-04-25T12:27:40;101417.69;;;23.52
73761;BMP280;69240;43.530;-5.646;2023-04-25T12:30:09;101411.84;;;23.88
73761;BMP280;69240;43.530;-5.646;2023-04-25T12:32:36;101408.78;;;24.12
73761;BMP280;69240;43.530;-5.646;2023-04-25T12:35:04;101408.28;;;24.49
73761;BMP280;69240;43.530;-5.646;2023-04-25T12:37:29;101418.53;;;24.56
73761;BMP280;69240;43.530;-5.646;2023-04-25T12:39:56;101413.91;;;24.16
73761;BMP280;69240;43.530;-5.646;2023-04-25T12:42:21;101409.25;;;24.31
73761;BMP280;69240;43.530;-5.646;2023-04-25T12:44:47;101405.22;;;24.04
73761;BMP280;69240;43.530;-5.646;2023-04-25T12:47:12;101392.78;;;24.16
73761;BMP280;69240;43.530;-5.646;2023-04-25T12:49:38;101397.72;;;23.97
73761;BMP280;69240;43.530;-5.646;2023-04-25T12:52:03;101394.22;;;24.17
73761;BMP280;69240;43.530;-5.646;2023-04-25T12:54:29;101394.25;;;24.25
73761;BMP280;69240;43.530;-5.646;2023-04-25T12:56:54;101404.81;;;24.41
73761;BMP280;69240;43.530;-5.646;2023-04-25T12:59:20;101397.84;;;24.12
73761;BMP280;69240;43.530;-5.646;2023-04-25T13:01:46;101398.38;;;23.90
73761;BMP280;69240;43.530;-5.646;2023-04-25T13:04:12;101397.16;;;24.19
73761;BMP280;69240;43.530;-5.646;2023-04-25T13:06:37;101396.75;;;24.15
73761;BMP280;69240;43.530;-5.646;2023-04-25T13:09:03;101404.03;;;24.13
73761;BMP280;69240;43.530;-5.646;2023-04-25T13:11:28;101402.50;;;24.04
73761;BMP280;69240;43.530;-5.646;2023-04-25T13:13:55;101393.72;;;23.98
73761;BMP280;69240;43.530;-5.646;2023-04-25T13:16:21;101411.19;;;23.95
73761;BMP280;69240;43.530;-5.646;2023-04-25T13:18:46;101410.00;;;24.32
73761;BMP280;69240;43.530;-5.646;2023-04-25T13:21:12;101413.69;;;24.34
73761;BMP280;69240;43.530;-5.646;2023-04-25T13:23:38;101406.53;;;24.59
73761;BMP280;69240;43.530;-5.646;2023-04-25T13:26:03;101411.16;;;24.79
73761;BMP280;69240;43.530;-5.646;2023-04-25T13:28:29;101405.91;;;24.81
73761;BMP280;69240;43.530;-5.646;2023-04-25T13:30:54;101415.78;;;24.84
73761;BMP280;69240;43.530;-5.646;2023-04-25T13:33:20;101412.38;;;25.06
73761;BMP280;69240;43.530;-5.646;2023-04-25T13:35:48;101421.38;;;25.14
73761;BMP280;69240;43.530;-5.646;2023-04-25T13:38:20;101412.47;;;24.86
73761;BMP280;69240;43.530;-5.646;2023-04-25T13:40:47;101408.88;;;24.91
73761;BMP280;69240;43.530;-5.646;2023-04-25T13:43:12;101417.28;;;24.85
73761;BMP280;69240;43.530;-5.646;2023-04-25T13:45:39;101412.41;;;24.63
73761;BMP280;69240;43.530;-5.646;2023-04-25T13:48:04;101406.31;;;24.85
73761;BMP280;69240;43.530;-5.646;2023-04-25T13:50:30;101420.25;;;25.02
73761;BMP280;69240;43.530;-5.646;2023-04-25T13:52:57;101423.47;;;24.93
73761;BMP280;69240;43.530;-5.646;2023-04-25T13:55:22;101414.47;;;25.28
73761;BMP280;69240;43.530;-5.646;2023-04-25T13:57:51;101411.44;;;24.96
73761;BMP280;69240;43.530;-5.646;2023-04-25T14:00:17;101408.22;;;25.13
73761;BMP280;69240;43.530;-5.646;2023-04-25T14:02:42;101414.38;;;24.98
73761;BMP280;69240;43.530;-5.646;2023-04-25T14:05:08;101410.81;;;24.40
73761;BMP280;69240;43.530;-5.646;2023-04-25T14:07:35;101396.31;;;24.60
73761;BMP280;69240;43.530;-5.646;2023-04-25T14:10:01;101406.16;;;24.98
73761;BMP280;69240;43.530;-5.646;2023-04-25T14:12:27;101404.50;;;24.95
73761;BMP280;69240;43.530;-5.646;2023-04-25T14:14:52;101401.53;;;24.78
73761;BMP280;69240;43.530;-5.646;2023-04-25T14:17:19;101404.25;;;25.21
73761;BMP280;69240;43.530;-5.646;2023-04-25T14:19:44;101404.03;;;24.76
73761;BMP280;69240;43.530;-5.646;2023-04-25T14:22:13;101411.94;;;24.52
73761;BMP280;69240;43.530;-5.646;2023-04-25T14:24:38;101398.31;;;24.31
73761;BMP280;69240;43.530;-5.646;2023-04-25T14:27:04;101401.84;;;24.39
73761;BMP280;69240;43.530;-5.646;2023-04-25T14:29:30;101406.47;;;24.52
73761;BMP280;69240;43.530;-5.646;2023-04-25T14:31:56;101385.44;;;24.11
73761;BMP280;69240;43.530;-5.646;2023-04-25T14:34:23;101379.25;;;23.90
73761;BMP280;69240;43.530;-5.646;2023-04-25T14:36:48;101389.16;;;23.40
73761;BMP280;69240;43.530;-5.646;2023-04-25T14:39:14;101393.75;;;23.45
73761;BMP280;69240;43.530;-5.646;2023-04-25T14:41:39;101399.72;;;23.76
73761;BMP280;69240;43.530;-5.646;2023-04-25T14:44:05;101419.09;;;23.66
73761;BMP280;69240;43.530;-5.646;2023-04-25T14:46:31;101423.78;;;23.78
73761;BMP280;69240;43.530;-5.646;2023-04-25T14:48:56;101434.22;;;23.67
73761;BMP280;69240;43.530;-5.646;2023-04-25T14:51:22;101432.13;;;23.39
73761;BMP280;69240;43.530;-5.646;2023-04-25T14:53:48;101440.41;;;23.34
73761;BMP280;69240;43.530;-5.646;2023-04-25T14:56:13;101446.31;;;23.38
73761;BMP280;69240;43.530;-5.646;2023-04-25T14:58:39;101460.97;;;23.14
73761;BMP280;69240;43.530;-5.646;2023-04-25T15:01:05;101472.19;;;22.72
73761;BMP280;69240;43.530;-5.646;2023-04-25T15:03:32;101478.28;;;23.04
73761;BMP280;69240;43.530;-5.646;2023-04-25T15:05:57;101479.50;;;23.42
73761;BMP280;69240;43.530;-5.646;2023-04-25T15:08:23;101471.78;;;23.07
73761;BMP280;69240;43.530;-5.646;2023-04-25T15:10:49;101467.56;;;22.93
73761;BMP280;69240;43.530;-5.646;2023-04-25T15:13:14;101470.72;;;22.26
73761;BMP280;69240;43.530;-5.646;2023-04-25T15:15:40;101476.69;;;22.25
73761;BMP280;69240;43.530;-5.646;2023-04-25T15:18:06;101473.91;;;22.12
73761;BMP280;69240;43.530;-5.646;2023-04-25T15:20:31;101470.41;;;21.80
73761;BMP280;69240;43.530;-5.646;2023-04-25T15:22:57;101461.13;;;22.07
73761;BMP280;69240;43.530;-5.646;2023-04-25T15:25:23;101458.13;;;21.92
73761;BMP280;69240;43.530;-5.646;2023-04-25T15:27:49;101450.78;;;21.68
73761;BMP280;69240;43.530;-5.646;2023-04-25T15:30:17;101437.88;;;21.50
73761;BMP280;69240;43.530;-5.646;2023-04-25T15:32:44;101434.94;;;21.48
73761;BMP280;69240;43.530;-5.646;2023-04-25T15:35:10;101449.22;;;21.73
73761;BMP280;69240;43.530;-5.646;2023-04-25T15:37:36;101445.97;;;21.74
73761;BMP280;69240;43.530;-5.646;2023-04-25T15:40:05;101444.78;;;21.88
73761;BMP280;69240;43.530;-5.646;2023-04-25T15:42:44;101453.16;;;22.09
73761;BMP280;69240;43.530;-5.646;2023-04-25T15:45:12;101454.44;;;22.21
73761;BMP280;69240;43.530;-5.646;2023-04-25T15:47:39;101454.78;;;22.17
73761;BMP280;69240;43.530;-5.646;2023-04-25T15:50:06;101458.81;;;22.42
73761;BMP280;69240;43.530;-5.646;2023-04-25T15:52:33;101458.06;;;22.42
73761;BMP280;69240;43.530;-5.646;2023-04-25T15:54:59;101451.94;;;22.23
73761;BMP280;69240;43.530;-5.646;2023-04-25T15:57:25;101462.25;;;22.30
73761;BMP280;69240;43.530;-5.646;2023-04-25T15:59:51;101466.03;;;22.40
73761;BMP280;69240;43.530;-5.646;2023-04-25T16:02:17;101462.53;;;22.26
73761;BMP280;69240;43.530;-5.646;2023-04-25T16:04:46;101469.56;;;22.35
73761;BMP280;69240;43.530;-5.646;2023-04-25T16:07:13;101469.22;;;21.94
73761;BMP280;69240;43.530;-5.646;2023-04-25T16:09:39;101470.88;;;21.84
73761;BMP280;69240;43.530;-5.646;2023-04-25T16:12:05;101465.56;;;21.73
73761;BMP280;69240;43.530;-5.646;2023-04-25T16:14:32;101465.91;;;22.01
73761;BMP280;69240;43.530;-5.646;2023-04-25T16:16:57;101474.41;;;21.79
73761;BMP280;69240;43.530;-5.646;2023-04-25T16:19:23;101465.19;;;21.82
73761;BMP280;69240;43.530;-5.646;2023-04-25T16:21:50;101472.03;;;21.70
73761;BMP280;69240;43.530;-5.646;2023-04-25T16:24:16;101476.03;;;21.69
73761;BMP280;69240;43.530;-5.646;2023-04-25T16:26:42;101462.47;;;21.63
73761;BMP280;69240;43.530;-5.646;2023-04-25T16:29:08;101469.38;;;21.83
73761;BMP280;69240;43.530;-5.646;2023-04-25T16:31:34;101468.44;;;21.62
73761;BMP280;69240;43.530;-5.646;2023-04-25T16:34:01;101464.38;;;21.87
73761;BMP280;69240;43.530;-5.646;2023-04-25T16:36:27;101456.28;;;21.63
73761;BMP280;69240;43.530;-5.646;2023-04-25T16:38:53;101457.47;;;21.86
73761;BMP280;69240;43.530;-5.646;2023-04-25T16:41:18;101458.06;;;21.79
73761;BMP280;69240;43.530;-5.646;2023-04-25T16:43:44;101452.66;;;21.55
73761;BMP280;69240;43.530;-5.646;2023-04-25T16:46:10;101447.16;;;21.79
73761;BMP280;69240;43.530;-5.646;2023-04-25T16:48:35;101439.25;;;21.94
73761;BMP280;69240;43.530;-5.646;2023-04-25T16:51:01;101441.97;;;21.94
73761;BMP280;69240;43.530;-5.646;2023-04-25T16:53:26;101425.78;;;22.01
73761;BMP280;69240;43.530;-5.646;2023-04-25T16:55:52;101425.78;;;22.01
73761;BMP280;69240;43.530;-5.646;2023-04-25T16:58:18;101415.09;;;21.85
73761;BMP280;69240;43.530;-5.646;2023-04-25T17:00:44;101404.81;;;21.78
73761;BMP280;69240;43.530;-5.646;2023-04-25T17:03:09;101407.31;;;21.76
73761;BMP280;69240;43.530;-5.646;2023-04-25T17:05:35;101408.78;;;21.77
73761;BMP280;69240;43.530;-5.646;2023-04-25T17:08:01;101397.59;;;21.62
73761;BMP280;69240;43.530;-5.646;2023-04-25T17:10:27;101401.97;;;21.52
73761;BMP280;69240;43.530;-5.646;2023-04-25T17:12:53;101398.56;;;21.64
73761;BMP280;69240;43.530;-5.646;2023-04-25T17:15:19;101400.50;;;21.51
73761;BMP280;69240;43.530;-5.646;2023-04-25T17:17:45;101400.50;;;21.51
73761;BMP280;69240;43.530;-5.646;2023-04-25T17:20:10;101405.03;;;21.43
73761;BMP280;69240;43.530;-5.646;2023-04-25T17:22:38;101400.63;;;21.40
73761;BMP280;69240;43.530;-5.646;2023-04-25T17:25:05;101397.69;;;21.38
73761;BMP280;69240;43.530;-5.646;2023-04-25T17:27:31;101394.56;;;21.34
73761;BMP280;69240;43.530;-5.646;2023-04-25T17:29:57;101396.22;;;21.19
73761;BMP280;69240;43.530;-5.646;2023-04-25T17:32:23;101389.22;;;21.23
73761;BMP280;69240;43.530;-5.646;2023-04-25T17:34:48;101385.00;;;21.22
73761;BMP280;69240;43.530;-5.646;2023-04-25T17:37:14;101384.47;;;21.29
73761;BMP280;69240;43.530;-5.646;2023-04-25T17:39:42;101381.13;;;21.36
73761;BMP280;69240;43.530;-5.646;2023-04-25T17:42:07;101384.31;;;21.40
73761;BMP280;69240;43.530;-5.646;2023-04-25T17:44:33;101378.75;;;21.27
73761;BMP280;69240;43.530;-5.646;2023-04-25T17:46:59;101379.56;;;21.22
73761;BMP280;69240;43.530;-5.646;2023-04-25T17:49:28;101378.69;;;21.14
73761;BMP280;69240;43.530;-5.646;2023-04-25T17:51:53;101381.63;;;21.16
73761;BMP280;69240;43.530;-5.646;2023-04-25T17:54:19;101384.84;;;20.96
73761;BMP280;69240;43.530;-5.646;2023-04-25T17:56:47;101379.13;;;21.00
73761;BMP280;69240;43.530;-5.646;2023-04-25T17:59:13;101385.41;;;20.89
73761;BMP280;69240;43.530;-5.646;2023-04-25T18:01:39;101387.44;;;20.83
73761;BMP280;69240;43.530;-5.646;2023-04-25T18:04:04;101390.84;;;20.89
73761;BMP280;69240;43.530;-5.646;2023-04-25T18:06:31;101392.78;;;20.94
73761;BMP280;69240;43.530;-5.646;2023-04-25T18:09:00;101384.84;;;20.96
73761;BMP280;69240;43.530;-5.646;2023-04-25T18:11:30;101382.25;;;20.61
73761;BMP280;69240;43.530;-5.646;2023-04-25T18:13:56;101377.13;;;20.28
73761;BMP280;69240;43.530;-5.646;2023-04-25T18:16:21;101375.53;;;20.38
73761;BMP280;69240;43.530;-5.646;2023-04-25T18:18:47;101378.88;;;20.26
73761;BMP280;69240;43.530;-5.646;2023-04-25T18:21:18;101370.66;;;20.31
73761;BMP280;69240;43.530;-5.646;2023-04-25T18:23:44;101372.25;;;19.86
73761;BMP280;69240;43.530;-5.646;2023-04-25T18:26:11;101369.47;;;19.92
73761;BMP280;69240;43.530;-5.646;2023-04-25T18:28:36;101366.75;;;19.92
73761;BMP280;69240;43.530;-5.646;2023-04-25T18:31:02;101353.47;;;19.88
73761;BMP280;69240;43.530;-5.646;2023-04-25T18:33:28;101360.06;;;19.98
73761;BMP280;69240;43.530;-5.646;2023-04-25T18:35:54;101358.59;;;19.97
73761;BMP280;69240;43.530;-5.646;2023-04-25T18:38:20;101352.88;;;20.01
73761;BMP280;69240;43.530;-5.646;2023-04-25T18:40:46;101357.81;;;20.02
73761;BMP280;69240;43.530;-5.646;2023-04-25T18:43:13;101354.13;;;20.00
73761;BMP280;69240;43.530;-5.646;2023-04-25T18:45:38;101360.06;;;19.98
73761;BMP280;69240;43.530;-5.646;2023-04-25T18:48:04;101356.31;;;20.07
73761;BMP280;69240;43.530;-5.646;2023-04-25T18:50:29;101358.53;;;20.03
73761;BMP280;69240;43.530;-5.646;2023-04-25T18:52:57;101365.72;;;20.00
73761;BMP280;69240;43.530;-5.646;2023-04-25T18:55:23;101362.69;;;20.09
73761;BMP280;69240;43.530;-5.646;2023-04-25T18:57:49;101357.06;;;20.07
73761;BMP280;69240;43.530;-5.646;2023-04-25T19:00:15;101355.81;;;20.03